NKS695 KFLL-KMSY
Flight info
| Callsign | NKS695 |
|---|---|
| Flight time | 1h 43m |
| Altitude | 36000 |
| Route | BNICE2 DOLIE Y280 REDFN Q105 HRV |
| Aircraft | A320/M-SDE3FGHIRWY/LB1 |
Departure
| Time | 2026-05-04 21:29 |
|---|---|
| Airport | Fort Lauderdale Hollywood International Airport (KFLL) |
Arrival
| Time | 2026-05-04 23:13 |
|---|---|
| Airport | Louis Armstrong New Orleans International Airport (KMSY) |
| Time | Latitude | Longitude | Altitude | Speed | Heading |
|---|---|---|---|---|---|
| 2026-05-04 21:15 | 26.07048 | -80.14670 | 16 ft | 0 kts | 17° |
| 2026-05-04 21:19 | 26.07044 | -80.14671 | 16 ft | 3 kts | 18° |
| 2026-05-04 21:19 | 26.07020 | -80.14684 | 18 ft | 4 kts | 43° |
| 2026-05-04 21:19 | 26.07005 | -80.14707 | 17 ft | 4 kts | 74° |
| 2026-05-04 21:20 | 26.07002 | -80.14736 | 19 ft | 4 kts | 97° |
| 2026-05-04 21:20 | 26.07008 | -80.14765 | 17 ft | 4 kts | 115° |
| 2026-05-04 21:20 | 26.07021 | -80.14789 | 19 ft | 2 kts | 135° |
| 2026-05-04 21:20 | 26.07023 | -80.14790 | 18 ft | 0 kts | 135° |
| 2026-05-04 21:23 | 26.07020 | -80.14787 | 19 ft | 3 kts | 135° |
| 2026-05-04 21:23 | 26.06976 | -80.14755 | 13 ft | 12 kts | 172° |
| 2026-05-04 21:23 | 26.06912 | -80.14818 | 18 ft | 12 kts | 248° |
| 2026-05-04 21:23 | 26.06911 | -80.14943 | 16 ft | 20 kts | 269° |
| 2026-05-04 21:24 | 26.06912 | -80.15082 | 16 ft | 15 kts | 269° |
| 2026-05-04 21:24 | 26.06978 | -80.15130 | 16 ft | 14 kts | 0° |
| 2026-05-04 21:24 | 26.07086 | -80.15129 | 16 ft | 17 kts | 0° |
| 2026-05-04 21:24 | 26.07215 | -80.15129 | 16 ft | 20 kts | 1° |
| 2026-05-04 21:25 | 26.07365 | -80.15126 | 16 ft | 23 kts | 1° |
| 2026-05-04 21:25 | 26.07489 | -80.15125 | 16 ft | 14 kts | 359° |
| 2026-05-04 21:25 | 26.07563 | -80.15165 | 16 ft | 12 kts | 281° |
| 2026-05-04 21:25 | 26.07555 | -80.15279 | 16 ft | 16 kts | 239° |
| 2026-05-04 21:26 | 26.07491 | -80.15378 | 16 ft | 20 kts | 270° |
| 2026-05-04 21:26 | 26.07491 | -80.15545 | 16 ft | 22 kts | 269° |
| 2026-05-04 21:26 | 26.07492 | -80.15708 | 16 ft | 21 kts | 271° |
| 2026-05-04 21:26 | 26.07494 | -80.15866 | 16 ft | 20 kts | 270° |
| 2026-05-04 21:27 | 26.07494 | -80.16027 | 16 ft | 24 kts | 270° |
| 2026-05-04 21:27 | 26.07495 | -80.16158 | 16 ft | 26 kts | 270° |
| 2026-05-04 21:27 | 26.07496 | -80.16363 | 16 ft | 27 kts | 270° |
| 2026-05-04 21:27 | 26.07497 | -80.16571 | 16 ft | 24 kts | 271° |
| 2026-05-04 21:28 | 26.07578 | -80.16643 | 16 ft | 18 kts | 1° |
| 2026-05-04 21:28 | 26.07687 | -80.16617 | 18 ft | 15 kts | 60° |
| 2026-05-04 21:28 | 26.07695 | -80.16372 | 21 ft | 61 kts | 90° |
| 2026-05-04 21:28 | 26.07691 | -80.15671 | 16 ft | 118 kts | 90° |
| 2026-05-04 21:29 | 26.07689 | -80.14673 | 117 ft | 150 kts | 89° |
| 2026-05-04 21:29 | 26.07699 | -80.13481 | 681 ft | 156 kts | 84° |
| 2026-05-04 21:29 | 26.07737 | -80.12271 | 1449 ft | 160 kts | 82° |
| 2026-05-04 21:29 | 26.07799 | -80.10960 | 2015 ft | 180 kts | 78° |
| 2026-05-04 21:30 | 26.08166 | -80.09547 | 2463 ft | 202 kts | 71° |
| 2026-05-04 21:30 | 26.08692 | -80.07993 | 2977 ft | 227 kts | 58° |
| 2026-05-04 21:30 | 26.09903 | -80.06777 | 3656 ft | 249 kts | 26° |
| 2026-05-04 21:30 | 26.11546 | -80.06095 | 4647 ft | 258 kts | 20° |
| 2026-05-04 21:31 | 26.15093 | -80.04978 | 6462 ft | 272 kts | 1° |
| 2026-05-04 21:31 | 26.16986 | -80.05187 | 7317 ft | 276 kts | 343° |
| 2026-05-04 21:31 | 26.18816 | -80.05876 | 8172 ft | 280 kts | 337° |
| 2026-05-04 21:32 | 26.20613 | -80.06695 | 9095 ft | 280 kts | 326° |
| 2026-05-04 21:32 | 26.22148 | -80.08012 | 9973 ft | 278 kts | 309° |
| 2026-05-04 21:32 | 26.23255 | -80.09746 | 10705 ft | 275 kts | 293° |
| 2026-05-04 21:32 | 26.24000 | -80.11753 | 11156 ft | 290 kts | 289° |
| 2026-05-04 21:33 | 26.24766 | -80.13928 | 11324 ft | 313 kts | 289° |
| 2026-05-04 21:33 | 26.25460 | -80.16287 | 11435 ft | 333 kts | 282° |
| 2026-05-04 21:33 | 26.25881 | -80.18904 | 11574 ft | 352 kts | 277° |
| 2026-05-04 21:33 | 26.26264 | -80.21636 | 11698 ft | 370 kts | 277° |
| 2026-05-04 21:34 | 26.26670 | -80.24515 | 12036 ft | 380 kts | 277° |
| 2026-05-04 21:34 | 26.27086 | -80.27439 | 12575 ft | 384 kts | 277° |
| 2026-05-04 21:34 | 26.27511 | -80.30384 | 13174 ft | 387 kts | 278° |
| 2026-05-04 21:34 | 26.27940 | -80.33352 | 13783 ft | 389 kts | 278° |
| 2026-05-04 21:35 | 26.28369 | -80.36331 | 14283 ft | 391 kts | 278° |
| 2026-05-04 21:35 | 26.28797 | -80.39333 | 14764 ft | 393 kts | 278° |
| 2026-05-04 21:35 | 26.29224 | -80.42343 | 15252 ft | 395 kts | 277° |
| 2026-05-04 21:35 | 26.29651 | -80.45379 | 15730 ft | 397 kts | 277° |
| 2026-05-04 21:36 | 26.30080 | -80.48425 | 16200 ft | 399 kts | 277° |
| 2026-05-04 21:36 | 26.30510 | -80.51487 | 16667 ft | 401 kts | 277° |
| 2026-05-04 21:36 | 26.30945 | -80.54573 | 17127 ft | 404 kts | 278° |
| 2026-05-04 21:36 | 26.31382 | -80.57670 | 17574 ft | 406 kts | 278° |
| 2026-05-04 21:37 | 26.31822 | -80.60790 | 18094 ft | 408 kts | 278° |
| 2026-05-04 21:37 | 26.32262 | -80.63928 | 18512 ft | 411 kts | 278° |
| 2026-05-04 21:37 | 26.32704 | -80.67078 | 18899 ft | 413 kts | 277° |
| 2026-05-04 21:37 | 26.33148 | -80.70250 | 19292 ft | 415 kts | 277° |
| 2026-05-04 21:38 | 26.33592 | -80.73433 | 19691 ft | 417 kts | 277° |
| 2026-05-04 21:38 | 26.34034 | -80.76630 | 20082 ft | 418 kts | 277° |
| 2026-05-04 21:38 | 26.34477 | -80.79848 | 20470 ft | 420 kts | 277° |
| 2026-05-04 21:38 | 26.34922 | -80.83077 | 20847 ft | 422 kts | 277° |
| 2026-05-04 21:39 | 26.35366 | -80.86279 | 21191 ft | 424 kts | 277° |
| 2026-05-04 21:39 | 26.36045 | -80.89487 | 21502 ft | 428 kts | 286° |
| 2026-05-04 21:39 | 26.37242 | -80.92543 | 21827 ft | 433 kts | 296° |
| 2026-05-04 21:39 | 26.38942 | -80.95338 | 22149 ft | 439 kts | 306° |
| 2026-05-04 21:40 | 26.41098 | -80.97791 | 22458 ft | 445 kts | 313° |
| 2026-05-04 21:40 | 26.43368 | -81.00150 | 22780 ft | 447 kts | 313° |
| 2026-05-04 21:40 | 26.45646 | -81.02530 | 23132 ft | 448 kts | 312° |
| 2026-05-04 21:40 | 26.47908 | -81.04905 | 23594 ft | 446 kts | 312° |
| 2026-05-04 21:41 | 26.50164 | -81.07279 | 24008 ft | 445 kts | 312° |
| 2026-05-04 21:41 | 26.52412 | -81.09646 | 24460 ft | 443 kts | 312° |
| 2026-05-04 21:41 | 26.54648 | -81.12003 | 24894 ft | 441 kts | 312° |
| 2026-05-04 21:41 | 26.56869 | -81.14348 | 25354 ft | 439 kts | 312° |
| 2026-05-04 21:42 | 26.59081 | -81.16687 | 25830 ft | 437 kts | 311° |
| 2026-05-04 21:42 | 26.61283 | -81.19017 | 26339 ft | 435 kts | 311° |
| 2026-05-04 21:42 | 26.63480 | -81.21337 | 26816 ft | 434 kts | 311° |
| 2026-05-04 21:42 | 26.65671 | -81.23648 | 27309 ft | 432 kts | 311° |
| 2026-05-04 21:43 | 26.67849 | -81.25957 | 27813 ft | 430 kts | 311° |
| 2026-05-04 21:43 | 26.70014 | -81.28259 | 28324 ft | 429 kts | 311° |
| 2026-05-04 21:43 | 26.72161 | -81.30547 | 28917 ft | 425 kts | 311° |
| 2026-05-04 21:43 | 26.74289 | -81.32819 | 29498 ft | 422 kts | 311° |
| 2026-05-04 21:44 | 26.76392 | -81.35059 | 30048 ft | 420 kts | 311° |
| 2026-05-04 21:44 | 26.78502 | -81.37305 | 30494 ft | 418 kts | 310° |
| 2026-05-04 21:44 | 26.80581 | -81.39519 | 30889 ft | 418 kts | 310° |
| 2026-05-04 21:44 | 26.82687 | -81.41765 | 31280 ft | 418 kts | 310° |
| 2026-05-04 21:45 | 26.84786 | -81.44008 | 31664 ft | 418 kts | 310° |
| 2026-05-04 21:45 | 26.86889 | -81.46257 | 32055 ft | 418 kts | 310° |
| 2026-05-04 21:45 | 26.88988 | -81.48504 | 32446 ft | 418 kts | 310° |
| 2026-05-04 21:45 | 26.91092 | -81.50755 | 32831 ft | 418 kts | 310° |
| 2026-05-04 21:46 | 26.93196 | -81.53007 | 33262 ft | 418 kts | 310° |
| 2026-05-04 21:46 | 26.95298 | -81.55254 | 33657 ft | 418 kts | 310° |
| 2026-05-04 21:46 | 26.97405 | -81.57505 | 34046 ft | 418 kts | 310° |
| 2026-05-04 21:46 | 26.99508 | -81.59753 | 34406 ft | 418 kts | 310° |
| 2026-05-04 21:47 | 27.01607 | -81.62000 | 34791 ft | 416 kts | 309° |
| 2026-05-04 21:47 | 27.03696 | -81.64242 | 35180 ft | 415 kts | 309° |
| 2026-05-04 21:47 | 27.05775 | -81.66471 | 35577 ft | 412 kts | 310° |
| 2026-05-04 21:47 | 27.07820 | -81.68665 | 35926 ft | 411 kts | 310° |
| 2026-05-04 21:48 | 27.09880 | -81.70880 | 36005 ft | 412 kts | 310° |
| 2026-05-04 21:48 | 27.14039 | -81.75367 | 36021 ft | 421 kts | 310° |
| 2026-05-04 21:49 | 27.18324 | -81.79981 | 36020 ft | 426 kts | 310° |
| 2026-05-04 21:49 | 27.22609 | -81.84583 | 36023 ft | 426 kts | 310° |
| 2026-05-04 21:50 | 27.26704 | -81.89310 | 36026 ft | 420 kts | 301° |
| 2026-05-04 21:50 | 27.29278 | -81.95072 | 36029 ft | 410 kts | 283° |
| 2026-05-04 21:51 | 27.30500 | -82.01328 | 36022 ft | 410 kts | 280° |
| 2026-05-04 21:51 | 27.31676 | -82.07601 | 36025 ft | 410 kts | 280° |
| 2026-05-04 21:52 | 27.32853 | -82.13877 | 36020 ft | 410 kts | 280° |
| 2026-05-04 21:52 | 27.34014 | -82.20113 | 36017 ft | 410 kts | 280° |
| 2026-05-04 21:53 | 27.35180 | -82.26390 | 36015 ft | 410 kts | 280° |
| 2026-05-04 21:53 | 27.36342 | -82.32663 | 36014 ft | 410 kts | 280° |
| 2026-05-04 21:54 | 27.37506 | -82.38940 | 36017 ft | 410 kts | 280° |
| 2026-05-04 21:54 | 27.38665 | -82.45229 | 36028 ft | 410 kts | 281° |
| 2026-05-04 21:55 | 27.39817 | -82.51512 | 36033 ft | 410 kts | 280° |
| 2026-05-04 21:55 | 27.40973 | -82.57802 | 36035 ft | 410 kts | 281° |
| 2026-05-04 21:56 | 27.42146 | -82.64089 | 36032 ft | 410 kts | 281° |
| 2026-05-04 21:56 | 27.43325 | -82.70376 | 36030 ft | 410 kts | 281° |
| 2026-05-04 21:57 | 27.44501 | -82.76663 | 36028 ft | 410 kts | 281° |
| 2026-05-04 21:57 | 27.45668 | -82.82947 | 36029 ft | 410 kts | 281° |
| 2026-05-04 21:58 | 27.46823 | -82.89233 | 36026 ft | 409 kts | 281° |
| 2026-05-04 21:58 | 27.47977 | -82.95505 | 36025 ft | 409 kts | 281° |
| 2026-05-04 21:59 | 27.49138 | -83.01769 | 36027 ft | 409 kts | 281° |
| 2026-05-04 21:59 | 27.50285 | -83.07998 | 36026 ft | 409 kts | 281° |
| 2026-05-04 22:00 | 27.51428 | -83.14263 | 36026 ft | 408 kts | 281° |
| 2026-05-04 22:00 | 27.52568 | -83.20531 | 36024 ft | 408 kts | 282° |
| 2026-05-04 22:01 | 27.53706 | -83.26752 | 36028 ft | 408 kts | 282° |
| 2026-05-04 22:01 | 27.54843 | -83.32986 | 36030 ft | 407 kts | 282° |
| 2026-05-04 22:02 | 27.55973 | -83.39213 | 36038 ft | 407 kts | 282° |
| 2026-05-04 22:02 | 27.57109 | -83.45469 | 36037 ft | 407 kts | 282° |
| 2026-05-04 22:03 | 27.58237 | -83.51731 | 36041 ft | 407 kts | 282° |
| 2026-05-04 22:03 | 27.59352 | -83.57942 | 36032 ft | 407 kts | 282° |
| 2026-05-04 22:04 | 27.60469 | -83.64191 | 36038 ft | 406 kts | 282° |
| 2026-05-04 22:04 | 27.61588 | -83.70429 | 36038 ft | 406 kts | 282° |
| 2026-05-04 22:05 | 27.62700 | -83.76665 | 36039 ft | 406 kts | 282° |
| 2026-05-04 22:05 | 27.63810 | -83.82906 | 36039 ft | 405 kts | 282° |
| 2026-05-04 22:06 | 27.64915 | -83.89140 | 36039 ft | 405 kts | 282° |
| 2026-05-04 22:06 | 27.66015 | -83.95372 | 36040 ft | 405 kts | 283° |
| 2026-05-04 22:07 | 27.67115 | -84.01585 | 36048 ft | 403 kts | 283° |
| 2026-05-04 22:07 | 27.68209 | -84.07786 | 36052 ft | 402 kts | 283° |
| 2026-05-04 22:08 | 27.69298 | -84.13978 | 36051 ft | 402 kts | 283° |
| 2026-05-04 22:08 | 27.70374 | -84.20163 | 36049 ft | 401 kts | 283° |
| 2026-05-04 22:09 | 27.71451 | -84.26340 | 36048 ft | 401 kts | 283° |
| 2026-05-04 22:09 | 27.72520 | -84.32479 | 36038 ft | 401 kts | 284° |
| 2026-05-04 22:10 | 27.73588 | -84.38642 | 36047 ft | 399 kts | 284° |
| 2026-05-04 22:10 | 27.74651 | -84.44796 | 36047 ft | 399 kts | 284° |
| 2026-05-04 22:11 | 27.75715 | -84.50940 | 36049 ft | 398 kts | 284° |
| 2026-05-04 22:11 | 27.76772 | -84.57071 | 36050 ft | 398 kts | 284° |
| 2026-05-04 22:12 | 27.77820 | -84.63204 | 36048 ft | 398 kts | 284° |
| 2026-05-04 22:12 | 27.78869 | -84.69331 | 36032 ft | 397 kts | 284° |
| 2026-05-04 22:13 | 27.79916 | -84.75452 | 36039 ft | 396 kts | 284° |
| 2026-05-04 22:13 | 27.80961 | -84.81563 | 36045 ft | 396 kts | 284° |
| 2026-05-04 22:14 | 27.81824 | -84.86645 | 36043 ft | 396 kts | 284° |
| 2026-05-04 22:14 | 27.83026 | -84.93745 | 36041 ft | 396 kts | 284° |
| 2026-05-04 22:15 | 27.84059 | -84.99848 | 36042 ft | 396 kts | 284° |
| 2026-05-04 22:15 | 27.85057 | -85.05789 | 36017 ft | 395 kts | 284° |
| 2026-05-04 22:16 | 27.85913 | -85.10881 | 36033 ft | 393 kts | 284° |
| 2026-05-04 22:16 | 27.86928 | -85.16919 | 36039 ft | 393 kts | 284° |
| 2026-05-04 22:17 | 27.87940 | -85.22993 | 36036 ft | 393 kts | 284° |
| 2026-05-04 22:17 | 27.89359 | -85.28914 | 36033 ft | 390 kts | 291° |
| 2026-05-04 22:18 | 27.91129 | -85.34708 | 36032 ft | 390 kts | 291° |
| 2026-05-04 22:18 | 27.92884 | -85.40507 | 36033 ft | 390 kts | 291° |
| 2026-05-04 22:19 | 27.94632 | -85.46310 | 36024 ft | 390 kts | 291° |
| 2026-05-04 22:19 | 27.96371 | -85.52113 | 36027 ft | 389 kts | 291° |
| 2026-05-04 22:20 | 27.98116 | -85.57903 | 36033 ft | 389 kts | 291° |
| 2026-05-04 22:20 | 27.99862 | -85.63692 | 36059 ft | 389 kts | 291° |
| 2026-05-04 22:21 | 28.01601 | -85.69482 | 36075 ft | 388 kts | 291° |
| 2026-05-04 22:21 | 28.03338 | -85.75258 | 36064 ft | 387 kts | 291° |
| 2026-05-04 22:22 | 28.05066 | -85.81032 | 36051 ft | 387 kts | 291° |
| 2026-05-04 22:22 | 28.06776 | -85.86762 | 36044 ft | 387 kts | 291° |
| 2026-05-04 22:23 | 28.08496 | -85.92529 | 36034 ft | 387 kts | 291° |
| 2026-05-04 22:23 | 28.10211 | -85.98299 | 36033 ft | 386 kts | 291° |
| 2026-05-04 22:24 | 28.11929 | -86.04067 | 36030 ft | 386 kts | 291° |
| 2026-05-04 22:24 | 28.13642 | -86.09845 | 36032 ft | 386 kts | 291° |
| 2026-05-04 22:25 | 28.15348 | -86.15619 | 36030 ft | 386 kts | 291° |
| 2026-05-04 22:25 | 28.17055 | -86.21395 | 36014 ft | 387 kts | 291° |
| 2026-05-04 22:26 | 28.18761 | -86.27183 | 36014 ft | 387 kts | 291° |
| 2026-05-04 22:26 | 28.20472 | -86.32978 | 36019 ft | 388 kts | 291° |
| 2026-05-04 22:27 | 28.22183 | -86.38782 | 36016 ft | 388 kts | 291° |
| 2026-05-04 22:27 | 28.23889 | -86.44592 | 36019 ft | 388 kts | 291° |
| 2026-05-04 22:28 | 28.25586 | -86.50408 | 36022 ft | 388 kts | 291° |
| 2026-05-04 22:28 | 28.27274 | -86.56185 | 36028 ft | 388 kts | 291° |
| 2026-05-04 22:29 | 28.28982 | -86.62036 | 36025 ft | 388 kts | 291° |
| 2026-05-04 22:29 | 28.30664 | -86.67803 | 36037 ft | 387 kts | 291° |
| 2026-05-04 22:30 | 28.32352 | -86.73602 | 36038 ft | 387 kts | 291° |
| 2026-05-04 22:30 | 28.34059 | -86.79434 | 36069 ft | 386 kts | 291° |
| 2026-05-04 22:31 | 28.35739 | -86.85176 | 36062 ft | 386 kts | 291° |
| 2026-05-04 22:31 | 28.37435 | -86.90953 | 36046 ft | 385 kts | 291° |
| 2026-05-04 22:32 | 28.39121 | -86.96734 | 36047 ft | 385 kts | 291° |
| 2026-05-04 22:32 | 28.40800 | -87.02504 | 36051 ft | 384 kts | 291° |
| 2026-05-04 22:33 | 28.42474 | -87.08268 | 36058 ft | 384 kts | 291° |
| 2026-05-04 22:33 | 28.44146 | -87.14021 | 36053 ft | 383 kts | 291° |
| 2026-05-04 22:34 | 28.45807 | -87.19778 | 36050 ft | 383 kts | 291° |
| 2026-05-04 22:34 | 28.47470 | -87.25533 | 36046 ft | 383 kts | 291° |
| 2026-05-04 22:35 | 28.49135 | -87.31287 | 36050 ft | 383 kts | 291° |
| 2026-05-04 22:35 | 28.50792 | -87.37036 | 36044 ft | 383 kts | 291° |
| 2026-05-04 22:36 | 28.52444 | -87.42792 | 36046 ft | 382 kts | 291° |
| 2026-05-04 22:36 | 28.54080 | -87.48503 | 36047 ft | 382 kts | 291° |
| 2026-05-04 22:37 | 28.55721 | -87.54245 | 36051 ft | 382 kts | 291° |
| 2026-05-04 22:37 | 28.57361 | -87.59988 | 36051 ft | 382 kts | 291° |
| 2026-05-04 22:38 | 28.59003 | -87.65736 | 36050 ft | 382 kts | 291° |
| 2026-05-04 22:38 | 28.60640 | -87.71480 | 36025 ft | 382 kts | 291° |
| 2026-05-04 22:39 | 28.62273 | -87.77225 | 36027 ft | 382 kts | 291° |
| 2026-05-04 22:39 | 28.63908 | -87.82974 | 36032 ft | 382 kts | 291° |
| 2026-05-04 22:40 | 28.65537 | -87.88723 | 36079 ft | 381 kts | 291° |
| 2026-05-04 22:40 | 28.67164 | -87.94460 | 36075 ft | 380 kts | 291° |
| 2026-05-04 22:41 | 28.68782 | -88.00185 | 36074 ft | 380 kts | 291° |
| 2026-05-04 22:41 | 28.70392 | -88.05912 | 36069 ft | 379 kts | 291° |
| 2026-05-04 22:42 | 28.71988 | -88.11589 | 36050 ft | 379 kts | 291° |
| 2026-05-04 22:42 | 28.73597 | -88.17311 | 36045 ft | 379 kts | 291° |
| 2026-05-04 22:43 | 28.75201 | -88.23031 | 36051 ft | 379 kts | 291° |
| 2026-05-04 22:43 | 28.76801 | -88.28760 | 36052 ft | 379 kts | 291° |
| 2026-05-04 22:44 | 28.78401 | -88.34491 | 36055 ft | 379 kts | 291° |
| 2026-05-04 22:44 | 28.79998 | -88.40222 | 36054 ft | 379 kts | 291° |
| 2026-05-04 22:45 | 28.81591 | -88.45951 | 36051 ft | 379 kts | 291° |
| 2026-05-04 22:45 | 28.83978 | -88.54557 | 36028 ft | 380 kts | 291° |
| 2026-05-04 22:46 | 28.85570 | -88.60299 | 36032 ft | 380 kts | 291° |
| 2026-05-04 22:46 | 28.87159 | -88.66051 | 36037 ft | 380 kts | 291° |
| 2026-05-04 22:47 | 28.89350 | -88.71479 | 36036 ft | 377 kts | 306° |
| 2026-05-04 22:47 | 28.92716 | -88.76019 | 36038 ft | 377 kts | 309° |
| 2026-05-04 22:48 | 28.96162 | -88.80583 | 36091 ft | 377 kts | 309° |
| 2026-05-04 22:48 | 28.99550 | -88.85095 | 36081 ft | 376 kts | 309° |
| 2026-05-04 22:49 | 29.02948 | -88.89625 | 36055 ft | 375 kts | 309° |
| 2026-05-04 22:49 | 29.06349 | -88.94152 | 36060 ft | 375 kts | 309° |
| 2026-05-04 22:50 | 29.09755 | -88.98684 | 36058 ft | 376 kts | 309° |
| 2026-05-04 22:50 | 29.13154 | -89.03219 | 36060 ft | 376 kts | 309° |
| 2026-05-04 22:51 | 29.14856 | -89.05490 | 35732 ft | 374 kts | 309° |
| 2026-05-04 22:51 | 29.16523 | -89.07719 | 35539 ft | 363 kts | 309° |
| 2026-05-04 22:51 | 29.18138 | -89.09878 | 35448 ft | 350 kts | 309° |
| 2026-05-04 22:51 | 29.19694 | -89.11957 | 35366 ft | 338 kts | 309° |
| 2026-05-04 22:52 | 29.22742 | -89.16030 | 35242 ft | 341 kts | 309° |
| 2026-05-04 22:52 | 29.25843 | -89.20190 | 35119 ft | 343 kts | 309° |
| 2026-05-04 22:53 | 29.28939 | -89.24337 | 34968 ft | 343 kts | 309° |
| 2026-05-04 22:53 | 29.32020 | -89.28463 | 34826 ft | 343 kts | 309° |
| 2026-05-04 22:54 | 29.35008 | -89.32780 | 34452 ft | 357 kts | 300° |
| 2026-05-04 22:54 | 29.36155 | -89.35357 | 33994 ft | 366 kts | 298° |
| 2026-05-04 22:54 | 29.37289 | -89.37995 | 33411 ft | 371 kts | 298° |
| 2026-05-04 22:55 | 29.38433 | -89.40663 | 32863 ft | 374 kts | 298° |
| 2026-05-04 22:55 | 29.39586 | -89.43354 | 32296 ft | 377 kts | 298° |
| 2026-05-04 22:55 | 29.40746 | -89.46064 | 31762 ft | 380 kts | 298° |
| 2026-05-04 22:55 | 29.41914 | -89.48790 | 31231 ft | 383 kts | 298° |
| 2026-05-04 22:56 | 29.43093 | -89.51544 | 30706 ft | 386 kts | 298° |
| 2026-05-04 22:56 | 29.44280 | -89.54315 | 30192 ft | 388 kts | 298° |
| 2026-05-04 22:56 | 29.45476 | -89.57106 | 29608 ft | 391 kts | 298° |
| 2026-05-04 22:56 | 29.46692 | -89.59917 | 29019 ft | 395 kts | 298° |
| 2026-05-04 22:57 | 29.47911 | -89.62710 | 28448 ft | 398 kts | 298° |
| 2026-05-04 22:57 | 29.49148 | -89.65516 | 27895 ft | 402 kts | 298° |
| 2026-05-04 22:57 | 29.50426 | -89.68386 | 27341 ft | 406 kts | 298° |
| 2026-05-04 22:57 | 29.51728 | -89.71282 | 26783 ft | 410 kts | 298° |
| 2026-05-04 22:58 | 29.53069 | -89.74237 | 26241 ft | 414 kts | 298° |
| 2026-05-04 22:58 | 29.54399 | -89.77138 | 25725 ft | 418 kts | 298° |
| 2026-05-04 22:58 | 29.55771 | -89.80096 | 25186 ft | 422 kts | 298° |
| 2026-05-04 22:58 | 29.57168 | -89.83081 | 24658 ft | 426 kts | 298° |
| 2026-05-04 22:59 | 29.58582 | -89.86071 | 24141 ft | 427 kts | 298° |
| 2026-05-04 22:59 | 29.59961 | -89.89091 | 23627 ft | 426 kts | 293° |
| 2026-05-04 22:59 | 29.60932 | -89.92299 | 23023 ft | 425 kts | 288° |
| 2026-05-04 22:59 | 29.61833 | -89.95526 | 22421 ft | 423 kts | 288° |
| 2026-05-04 23:00 | 29.62727 | -89.98732 | 21840 ft | 420 kts | 288° |
| 2026-05-04 23:00 | 29.63612 | -90.01912 | 21252 ft | 417 kts | 288° |
| 2026-05-04 23:00 | 29.64491 | -90.05083 | 20684 ft | 415 kts | 288° |
| 2026-05-04 23:00 | 29.65368 | -90.08234 | 19943 ft | 412 kts | 288° |
| 2026-05-04 23:01 | 29.66399 | -90.11290 | 19203 ft | 409 kts | 293° |
| 2026-05-04 23:01 | 29.67521 | -90.14281 | 18466 ft | 407 kts | 293° |
| 2026-05-04 23:01 | 29.68646 | -90.17257 | 17653 ft | 404 kts | 293° |
| 2026-05-04 23:01 | 29.69761 | -90.20204 | 16843 ft | 400 kts | 293° |
| 2026-05-04 23:02 | 29.70866 | -90.23122 | 16050 ft | 396 kts | 293° |
| 2026-05-04 23:02 | 29.71960 | -90.26014 | 15271 ft | 393 kts | 293° |
| 2026-05-04 23:02 | 29.73046 | -90.28881 | 14524 ft | 389 kts | 293° |
| 2026-05-04 23:02 | 29.74123 | -90.31724 | 13786 ft | 386 kts | 293° |
| 2026-05-04 23:03 | 29.75195 | -90.34549 | 12952 ft | 384 kts | 293° |
| 2026-05-04 23:03 | 29.76263 | -90.37347 | 12149 ft | 381 kts | 293° |
| 2026-05-04 23:03 | 29.77327 | -90.40127 | 11295 ft | 379 kts | 294° |
| 2026-05-04 23:03 | 29.78030 | -90.41965 | 10730 ft | 379 kts | 293° |
| 2026-05-04 23:04 | 29.79097 | -90.44735 | 9877 ft | 377 kts | 293° |
| 2026-05-04 23:04 | 29.80166 | -90.47487 | 8959 ft | 376 kts | 294° |
| 2026-05-04 23:04 | 29.81236 | -90.50225 | 8060 ft | 374 kts | 294° |
| 2026-05-04 23:04 | 29.82649 | -90.53825 | 6917 ft | 371 kts | 294° |
| 2026-05-04 23:05 | 29.83713 | -90.56528 | 6035 ft | 369 kts | 294° |
| 2026-05-04 23:05 | 29.84506 | -90.58265 | 5401 ft | 357 kts | 303° |
| 2026-05-04 23:05 | 29.86201 | -90.60263 | 4519 ft | 346 kts | 323° |
| 2026-05-04 23:05 | 29.88341 | -90.61334 | 3759 ft | 336 kts | 348° |
| 2026-05-04 23:06 | 29.90621 | -90.61390 | 3092 ft | 324 kts | 8° |
| 2026-05-04 23:06 | 29.92787 | -90.60867 | 2418 ft | 313 kts | 14° |
| 2026-05-04 23:06 | 29.94794 | -90.60093 | 2071 ft | 293 kts | 29° |
| 2026-05-04 23:06 | 29.96476 | -90.58945 | 1995 ft | 272 kts | 31° |
| 2026-05-04 23:07 | 29.98068 | -90.57843 | 1994 ft | 261 kts | 32° |
| 2026-05-04 23:07 | 29.99580 | -90.56796 | 1993 ft | 246 kts | 31° |
| 2026-05-04 23:07 | 30.01002 | -90.55811 | 1991 ft | 231 kts | 32° |
| 2026-05-04 23:07 | 30.02298 | -90.54769 | 2003 ft | 228 kts | 43° |
| 2026-05-04 23:08 | 30.03347 | -90.53390 | 1999 ft | 230 kts | 58° |
| 2026-05-04 23:08 | 30.04070 | -90.51747 | 2002 ft | 230 kts | 73° |
| 2026-05-04 23:08 | 30.04424 | -90.49951 | 1997 ft | 229 kts | 88° |
| 2026-05-04 23:08 | 30.04389 | -90.48125 | 1997 ft | 227 kts | 101° |
| 2026-05-04 23:09 | 30.04016 | -90.46367 | 1999 ft | 225 kts | 109° |
| 2026-05-04 23:09 | 30.03594 | -90.44623 | 1998 ft | 227 kts | 108° |
| 2026-05-04 23:09 | 30.03180 | -90.42888 | 1996 ft | 220 kts | 109° |
| 2026-05-04 23:09 | 30.02789 | -90.41235 | 1997 ft | 206 kts | 108° |
| 2026-05-04 23:10 | 30.02422 | -90.39681 | 1991 ft | 197 kts | 110° |
| 2026-05-04 23:10 | 30.02058 | -90.38161 | 1820 ft | 194 kts | 109° |
| 2026-05-04 23:10 | 30.01713 | -90.36712 | 1534 ft | 181 kts | 109° |
| 2026-05-04 23:10 | 30.01394 | -90.35370 | 1298 ft | 166 kts | 110° |
| 2026-05-04 23:11 | 30.01108 | -90.34158 | 1090 ft | 148 kts | 111° |
| 2026-05-04 23:11 | 30.00845 | -90.33053 | 883 ft | 140 kts | 112° |
| 2026-05-04 23:11 | 30.00589 | -90.31996 | 702 ft | 136 kts | 110° |
| 2026-05-04 23:11 | 30.00337 | -90.30963 | 524 ft | 132 kts | 112° |
| 2026-05-04 23:12 | 30.00095 | -90.29955 | 362 ft | 131 kts | 110° |
| 2026-05-04 23:12 | 29.99858 | -90.28955 | 191 ft | 128 kts | 110° |
| 2026-05-04 23:12 | 29.99616 | -90.27965 | 18 ft | 126 kts | 108° |
| 2026-05-04 23:12 | 29.99409 | -90.27121 | 8 ft | 88 kts | 105° |
| 2026-05-04 23:13 | 29.99287 | -90.26618 | 10 ft | 43 kts | 106° |
| 2026-05-04 23:13 | 29.99214 | -90.26320 | 8 ft | 37 kts | 105° |
| 2026-05-04 23:13 | 29.99147 | -90.26044 | 7 ft | 34 kts | 105° |
| 2026-05-04 23:13 | 29.99095 | -90.25821 | 7 ft | 26 kts | 105° |
| 2026-05-04 23:14 | 29.99092 | -90.25651 | 7 ft | 17 kts | 29° |
| 2026-05-04 23:14 | 29.99190 | -90.25613 | 5 ft | 14 kts | 35° |
| 2026-05-04 23:14 | 29.99207 | -90.25513 | 7 ft | 14 kts | 94° |
| 2026-05-04 23:14 | 29.99202 | -90.25366 | 8 ft | 17 kts | 74° |
| 2026-05-04 23:15 | 29.99251 | -90.25260 | 8 ft | 12 kts | 40° |
| 2026-05-04 23:15 | 29.99288 | -90.25234 | 10 ft | 2 kts | 24° |
| 2026-05-04 23:15 | 29.99319 | -90.25238 | 9 ft | 4 kts | 284° |
| 2026-05-04 23:15 | 29.99323 | -90.25284 | 7 ft | 5 kts | 277° |
| 2026-05-04 23:16 | 29.99324 | -90.25301 | 7 ft | 0 kts | 276° |